Time;durP1;ratioP1;P1;durP2;ratioP2;P2;SDS_P1;SDS_P2;PMS_P1;PMS_P2;Temp;Humidity;BMP_temperature;BMP_pressure;BME280_temperature;BME280_humidity;BME280_pressure;Samples;Min_cycle;Max_cycle;Signal;HPM_P1;HPM_P2
2022/06/12 00:00:41;;;;;;;6.90;2.60;;;17.30;99.90;;;;;;4990897;28;20971;-73
2022/06/12 00:03:09;;;;;;;4.33;2.57;;;17.20;99.90;;;;;;4990731;28;20526;-74
2022/06/12 00:05:41;;;;;;;6.23;2.67;;;17.20;99.90;;;;;;4990897;28;20180;-71
2022/06/12 00:08:08;;;;;;;4.63;2.77;;;17.20;99.90;;;;;;4990900;28;20419;-72
2022/06/12 00:10:37;;;;;;;8.57;2.60;;;17.10;99.90;;;;;;4990707;28;20435;-72
2022/06/12 00:13:04;;;;;;;5.03;2.63;;;17.10;99.90;;;;;;5005244;28;20556;-73
2022/06/12 00:15:30;;;;;;;7.10;2.70;;;17.10;99.90;;;;;;4990579;28;20451;-72
2022/06/12 00:17:57;;;;;;;8.50;3.37;;;17.10;99.90;;;;;;4988964;28;20461;-72
2022/06/12 00:20:24;;;;;;;4.40;2.53;;;17.00;99.90;;;;;;4990438;28;20516;-71
2022/06/12 00:22:52;;;;;;;5.57;3.03;;;17.00;99.90;;;;;;4990773;28;20931;-71
2022/06/12 00:25:20;;;;;;;4.43;2.63;;;17.10;99.90;;;;;;4990394;28;21075;-73
2022/06/12 00:27:47;;;;;;;3.70;2.70;;;17.10;99.90;;;;;;4990183;28;20432;-73
2022/06/12 00:30:16;;;;;;;8.80;3.20;;;17.20;99.90;;;;;;5005163;28;20420;-73
2022/06/12 00:32:44;;;;;;;4.07;2.80;;;17.20;99.90;;;;;;4990144;28;20451;-73
2022/06/12 00:35:10;;;;;;;4.73;3.03;;;17.10;99.90;;;;;;4990189;28;20424;-73
2022/06/12 00:37:37;;;;;;;3.90;2.40;;;17.10;99.90;;;;;;4990291;28;20474;-76
2022/06/12 00:40:05;;;;;;;3.20;2.47;;;17.00;99.90;;;;;;4990006;28;20427;-76
2022/06/12 00:42:36;;;;;;;3.10;2.60;;;17.00;99.90;;;;;;4988438;28;20670;-75
2022/06/12 00:45:22;;;;;;;3.03;2.73;;;17.00;99.90;;;;;;4990095;28;20838;-77
2022/06/12 00:47:48;;;;;;;2.90;2.17;;;16.90;99.90;;;;;;4988506;28;20413;-76
2022/06/12 00:50:13;;;;;;;3.40;2.10;;;16.90;99.90;;;;;;4988449;28;20943;-76
2022/06/12 00:52:47;;;;;;;5.77;2.50;;;16.90;99.90;;;;;;4988857;28;20581;-76
2022/06/12 00:55:46;;;;;;;2.90;2.60;;;16.90;99.90;;;;;;4988864;28;20220;-76
2022/06/12 00:58:18;;;;;;;3.33;2.60;;;16.80;99.90;;;;;;4966486;28;20440;-77
2022/06/12 01:00:45;;;;;;;2.83;2.50;;;16.70;99.90;;;;;;4989859;28;20423;-76
2022/06/12 01:03:10;;;;;;;2.63;2.43;;;16.60;99.90;;;;;;4988180;28;20543;-74
2022/06/12 01:08:23;;;;;;;3.17;2.67;;;16.50;99.90;;;;;;4989966;28;20723;-74
2022/06/12 01:10:52;;;;;;;4.90;2.80;;;16.50;99.90;;;;;;4989648;28;20422;-74
2022/06/12 01:13:31;;;;;;;3.63;2.50;;;16.40;99.90;;;;;;5004263;28;20479;-76
2022/06/12 01:16:01;;;;;;;3.60;2.70;;;16.40;99.90;;;;;;4989762;28;20473;-75
2022/06/12 01:18:51;;;;;;;4.60;2.67;;;16.40;99.90;;;;;;4990380;28;20444;-76
2022/06/12 01:21:48;;;;;;;3.30;3.00;;;16.30;99.90;;;;;;4988003;28;20558;-76
2022/06/12 01:24:38;;;;;;;4.50;2.77;;;16.30;99.90;;;;;;4987822;28;20549;-73
2022/06/12 01:27:28;;;;;;;2.90;2.60;;;16.20;99.90;;;;;;4989452;28;20442;-75
2022/06/12 01:30:21;;;;;;;6.60;3.50;;;16.20;99.90;;;;;;4989596;28;20431;-76
2022/06/12 01:33:08;;;;;;;6.23;2.97;;;16.20;99.90;;;;;;4989597;28;20434;-76
2022/06/12 01:35:56;;;;;;;2.87;2.67;;;16.20;99.90;;;;;;4989676;28;20411;-77
2022/06/12 01:38:21;;;;;;;3.80;2.40;;;16.10;99.90;;;;;;4989503;28;20823;-76
2022/06/12 01:41:01;;;;;;;3.03;2.77;;;16.10;99.90;;;;;;4989215;28;20411;-76
2022/06/12 01:43:53;;;;;;;3.33;2.97;;;16.00;99.90;;;;;;4989241;28;20693;-76
2022/06/12 01:46:23;;;;;;;3.20;2.83;;;16.00;99.90;;;;;;4987719;28;21003;-76
2022/06/12 01:49:01;;;;;;;5.17;3.70;;;16.00;99.90;;;;;;4971741;28;20431;-77
2022/06/12 01:51:54;;;;;;;4.90;3.13;;;15.90;99.90;;;;;;5004125;28;20426;-76
2022/06/12 01:54:44;;;;;;;5.73;3.17;;;15.90;99.90;;;;;;4990837;28;20907;-77
2022/06/12 01:57:32;;;;;;;6.93;3.50;;;15.80;99.90;;;;;;4990020;28;20847;-76
2022/06/12 02:00:05;;;;;;;5.10;3.00;;;15.80;99.90;;;;;;4989023;28;20433;-73
2022/06/12 02:02:52;;;;;;;5.20;3.03;;;15.80;99.90;;;;;;4989229;28;20469;-73
2022/06/12 02:05:35;;;;;;;4.70;3.77;;;15.80;99.90;;;;;;4989065;28;20613;-74
2022/06/12 02:08:09;;;;;;;5.60;3.77;;;15.80;99.90;;;;;;4989228;28;20419;-74
2022/06/12 02:13:11;;;;;;;7.93;3.80;;;15.70;99.90;;;;;;4987534;28;20987;-74
2022/06/12 02:13:47;;;;;;;8.23;3.33;;;15.80;99.90;;;;;;4988567;28;20865;-73
2022/06/12 02:16:19;;;;;;;5.23;3.23;;;15.70;99.90;;;;;;4989128;28;20438;-74
2022/06/12 02:18:54;;;;;;;5.80;3.63;;;15.70;99.90;;;;;;4989046;28;20432;-73
2022/06/12 02:21:29;;;;;;;5.27;3.80;;;15.70;99.90;;;;;;5006948;28;20869;-74
2022/06/12 02:24:05;;;;;;;3.53;3.23;;;15.60;99.90;;;;;;5007585;28;20487;-75
2022/06/12 02:26:57;;;;;;;6.13;3.77;;;15.50;99.90;;;;;;4993000;28;20417;-75
2022/06/12 02:29:27;;;;;;;7.13;3.70;;;15.40;99.90;;;;;;4993392;28;21258;-75
2022/06/12 02:31:55;;;;;;;4.83;3.57;;;15.30;99.90;;;;;;4993672;28;20467;-75
2022/06/12 02:34:27;;;;;;;5.90;3.93;;;15.30;99.90;;;;;;4991579;28;20900;-75
2022/06/12 02:36:58;;;;;;;7.57;3.77;;;15.20;99.90;;;;;;4991481;28;20465;-75
2022/06/12 02:39:28;;;;;;;7.47;3.60;;;15.20;99.90;;;;;;4993059;28;20421;-75
2022/06/12 02:42:01;;;;;;;9.03;4.07;;;15.20;99.90;;;;;;5010417;28;20988;-75
2022/06/12 02:44:57;;;;;;;5.10;3.70;;;15.10;99.90;;;;;;4995103;28;20480;-75
2022/06/12 02:47:26;;;;;;;3.63;3.30;;;15.10;99.90;;;;;;4997114;28;20421;-76
2022/06/12 02:49:54;;;;;;;6.87;3.90;;;15.10;99.90;;;;;;4996590;28;20424;-75
2022/06/12 02:52:46;;;;;;;3.40;3.20;;;15.10;99.90;;;;;;5007846;28;20461;-75
2022/06/12 02:55:27;;;;;;;2.80;2.60;;;15.00;99.90;;;;;;4989856;28;20442;-75
2022/06/12 02:58:16;;;;;;;3.40;3.10;;;15.00;99.90;;;;;;4992742;28;20930;-74
2022/06/12 03:01:19;;;;;;;5.40;2.97;;;15.00;99.90;;;;;;4992537;28;20421;-74
2022/06/12 03:03:54;;;;;;;3.93;3.17;;;14.90;99.90;;;;;;4931665;29;21152;-74
2022/06/12 03:06:24;;;;;;;4.17;3.27;;;14.90;99.90;;;;;;4984720;28;20535;-73
2022/06/12 03:08:50;;;;;;;12.23;3.20;;;14.90;99.90;;;;;;4993004;28;20425;-74
2022/06/12 03:11:24;;;;;;;4.07;3.43;;;15.00;99.90;;;;;;4991553;28;20422;-73
2022/06/12 03:13:52;;;;;;;4.50;3.03;;;14.80;99.90;;;;;;4992822;28;20480;-73
2022/06/12 03:16:27;;;;;;;5.03;3.10;;;14.80;99.90;;;;;;4991465;28;20429;-72
2022/06/12 03:19:08;;;;;;;4.90;3.00;;;14.80;99.90;;;;;;4992782;28;20437;-72
2022/06/12 03:21:54;;;;;;;6.27;2.67;;;14.80;99.90;;;;;;5007741;28;20444;-73
2022/06/12 03:24:38;;;;;;;4.40;3.33;;;14.60;99.90;;;;;;4992557;28;20465;-73
2022/06/12 03:27:45;;;;;;;3.00;2.70;;;14.60;99.90;;;;;;4992560;28;20488;-73
2022/06/12 03:30:17;;;;;;;3.30;2.63;;;14.60;99.90;;;;;;4932689;29;20434;-74
2022/06/12 03:33:01;;;;;;;3.00;2.70;;;14.60;99.90;;;;;;4980565;28;20876;-73
2022/06/12 03:35:47;;;;;;;5.47;3.20;;;14.70;99.90;;;;;;4991471;28;20428;-73
2022/06/12 03:38:43;;;;;;;4.00;3.13;;;14.70;99.90;;;;;;4991770;28;20455;-74
2022/06/12 03:41:22;;;;;;;4.50;2.40;;;14.70;99.90;;;;;;4990241;28;20440;-74
2022/06/12 03:44:25;;;;;;;4.00;2.73;;;14.70;99.90;;;;;;4991218;28;20571;-74
2022/06/12 03:47:02;;;;;;;4.73;2.80;;;14.70;99.90;;;;;;4991165;28;20769;-74
2022/06/12 03:49:36;;;;;;;3.13;2.93;;;14.80;99.90;;;;;;5005991;28;20424;-74
2022/06/12 03:52:45;;;;;;;3.17;2.87;;;14.80;99.90;;;;;;4991059;28;20980;-74
2022/06/12 03:58:33;;;;;;;2.63;2.43;;;15.00;99.90;;;;;;4991176;28;20440;-76
2022/06/12 04:01:01;;;;;;;3.03;2.80;;;15.10;99.90;;;;;;4989462;28;20797;-76
2022/06/12 04:03:35;;;;;;;3.23;2.53;;;15.10;99.90;;;;;;4991125;28;20502;-77
2022/06/12 04:06:08;;;;;;;4.10;2.33;;;15.10;99.90;;;;;;4991730;28;20426;-76
2022/06/12 04:09:00;;;;;;;4.50;3.10;;;15.10;99.90;;;;;;5005429;28;20437;-75
2022/06/12 04:11:29;;;;;;;2.50;2.30;;;15.10;99.90;;;;;;4987933;28;20458;-75
2022/06/12 04:13:56;;;;;;;3.57;2.80;;;15.10;99.90;;;;;;4990521;28;20966;-76
2022/06/12 04:16:43;;;;;;;3.00;2.60;;;15.10;99.90;;;;;;4990702;28;20421;-75
2022/06/12 04:19:14;;;;;;;2.20;2.10;;;15.10;99.90;;;;;;4990568;28;20422;-76
2022/06/12 04:21:52;;;;;;;2.90;2.27;;;15.20;99.90;;;;;;5005311;28;20945;-75
2022/06/12 04:24:53;;;;;;;2.80;2.60;;;15.30;99.90;;;;;;4990367;28;20496;-76
2022/06/12 04:27:25;;;;;;;3.57;2.40;;;15.50;99.90;;;;;;4964236;28;20420;-76
2022/06/12 04:29:58;;;;;;;3.83;3.00;;;15.60;99.90;;;;;;4990454;28;20504;-74
2022/06/12 04:32:25;;;;;;;3.67;2.13;;;15.60;99.90;;;;;;4990276;28;20483;-74
2022/06/12 04:34:51;;;;;;;7.97;2.83;;;15.80;99.90;;;;;;5005226;28;20504;-74
2022/06/12 04:37:23;;;;;;;4.40;2.97;;;15.90;99.90;;;;;;4990225;28;20999;-73
2022/06/12 04:39:50;;;;;;;4.23;2.77;;;15.90;99.90;;;;;;4990325;28;20896;-74
2022/06/12 04:42:19;;;;;;;3.03;2.73;;;15.90;99.90;;;;;;4972549;28;20454;-74
2022/06/12 04:44:45;;;;;;;3.10;2.70;;;15.90;99.90;;;;;;4990458;28;20925;-73
2022/06/12 04:47:17;;;;;;;3.97;2.33;;;15.90;99.90;;;;;;5005800;28;20509;-73
2022/06/12 04:49:43;;;;;;;3.20;2.60;;;16.00;99.90;;;;;;4993592;28;20226;-78
2022/06/12 04:52:11;;;;;;;2.70;2.50;;;16.00;99.90;;;;;;5008345;28;20933;-77
2022/06/12 04:54:38;;;;;;;3.53;2.40;;;16.10;99.90;;;;;;4992070;28;20187;-74
2022/06/12 04:57:05;;;;;;;4.20;2.23;;;16.30;99.90;;;;;;4990080;28;20539;-76
2022/06/12 04:59:31;;;;;;;2.87;2.60;;;16.50;99.90;;;;;;4991052;28;20422;-79
2022/06/12 05:01:57;;;;;;;4.23;3.90;;;16.60;99.90;;;;;;4974697;28;20953;-80
2022/06/12 05:04:25;;;;;;;3.00;2.67;;;16.70;99.90;;;;;;5007629;28;20470;-79
2022/06/12 05:06:51;;;;;;;2.93;2.50;;;16.80;99.90;;;;;;4991591;28;20436;-79
2022/06/12 05:09:18;;;;;;;4.63;2.40;;;16.80;99.90;;;;;;4990240;28;20438;-78
2022/06/12 05:11:44;;;;;;;3.67;3.30;;;16.90;99.90;;;;;;5010635;28;20523;-78
2022/06/12 05:14:11;;;;;;;2.53;2.33;;;17.00;99.90;;;;;;5007399;28;21042;-77
2022/06/12 05:16:42;;;;;;;2.50;1.90;;;17.10;99.90;;;;;;4993104;28;20291;-77
2022/06/12 05:19:13;;;;;;;2.57;2.30;;;17.20;99.90;;;;;;4991562;28;20420;-76
2022/06/12 05:21:39;;;;;;;2.30;2.20;;;17.30;99.90;;;;;;4988645;28;20427;-76
2022/06/12 05:24:05;;;;;;;2.70;2.50;;;17.60;99.90;;;;;;4988725;28;20957;-76
2022/06/12 05:26:33;;;;;;;3.20;3.00;;;17.70;99.90;;;;;;4988485;28;20428;-75
2022/06/12 05:29:00;;;;;;;3.90;2.90;;;17.90;99.90;;;;;;5005234;28;20424;-77
2022/06/12 05:31:26;;;;;;;4.53;2.70;;;18.10;99.90;;;;;;4990447;28;20408;-76
2022/06/12 05:33:53;;;;;;;4.67;2.90;;;18.30;99.90;;;;;;4988823;28;20586;-76
2022/06/12 05:36:20;;;;;;;2.83;2.63;;;18.40;99.90;;;;;;4991081;28;20187;-77
2022/06/12 05:38:46;;;;;;;3.13;2.67;;;18.70;99.90;;;;;;5007043;28;20953;-77
2022/06/12 05:41:13;;;;;;;2.93;2.43;;;18.80;99.90;;;;;;4991603;28;20430;-78
2022/06/12 05:43:40;;;;;;;2.57;2.37;;;18.80;99.90;;;;;;4991396;28;20472;-78
2022/06/12 05:46:08;;;;;;;3.97;2.80;;;18.90;99.90;;;;;;4991587;28;20517;-77
2022/06/12 05:48:33;;;;;;;4.00;2.57;;;19.10;99.90;;;;;;4973285;28;20806;-75
2022/06/12 05:51:00;;;;;;;5.17;2.50;;;19.20;99.90;;;;;;4990459;28;20417;-76
2022/06/12 05:53:27;;;;;;;3.53;2.50;;;19.30;99.90;;;;;;4988654;28;20233;-76
2022/06/12 05:55:55;;;;;;;4.73;2.30;;;19.40;99.90;;;;;;4992097;28;20584;-76
2022/06/12 05:58:24;;;;;;;2.63;2.43;;;19.50;99.90;;;;;;4993659;28;20412;-75
2022/06/12 06:00:50;;;;;;;2.30;2.10;;;19.60;99.90;;;;;;4993467;28;20427;-76
2022/06/12 06:03:16;;;;;;;2.60;2.40;;;19.70;99.90;;;;;;4993094;28;20536;-76
2022/06/12 06:05:43;;;;;;;2.67;2.47;;;19.90;99.90;;;;;;4993157;28;20511;-76
2022/06/12 06:08:10;;;;;;;2.57;2.30;;;19.90;99.90;;;;;;5009013;28;20186;-77
2022/06/12 06:10:36;;;;;;;2.93;2.53;;;20.00;99.90;;;;;;4994550;28;20424;-77
2022/06/12 06:13:02;;;;;;;2.73;2.50;;;20.10;99.90;;;;;;4977055;28;20476;-77
2022/06/12 06:15:28;;;;;;;3.23;2.23;;;20.10;99.90;;;;;;4994583;28;20416;-77
2022/06/12 06:17:54;;;;;;;2.80;2.20;;;20.20;99.90;;;;;;4994334;28;20428;-77
2022/06/12 06:20:25;;;;;;;3.27;2.70;;;20.30;99.90;;;;;;5009327;28;20464;-77
2022/06/12 06:22:52;;;;;;;2.73;2.47;;;20.40;99.90;;;;;;4994357;28;20851;-76
2022/06/12 06:25:19;;;;;;;4.40;2.80;;;20.60;99.90;;;;;;4992047;28;20518;-77
2022/06/12 06:27:45;;;;;;;2.87;2.07;;;20.80;99.90;;;;;;4993874;28;20845;-77
2022/06/12 06:30:13;;;;;;;4.47;2.90;;;21.00;99.90;;;;;;4993890;28;20507;-77
2022/06/12 06:32:38;;;;;;;4.83;3.17;;;21.10;99.90;;;;;;4993463;28;20451;-77
2022/06/12 06:35:05;;;;;;;3.23;2.30;;;21.10;99.90;;;;;;4992524;28;20425;-77
2022/06/12 06:37:32;;;;;;;2.37;2.00;;;21.20;99.90;;;;;;4992427;28;20619;-77
2022/06/12 06:39:58;;;;;;;6.73;2.50;;;21.40;99.90;;;;;;4993399;28;20902;-77
2022/06/12 06:42:23;;;;;;;4.27;2.50;;;21.60;99.90;;;;;;4992316;28;20892;-77
2022/06/12 06:47:35;;;;;;;4.10;2.60;;;21.60;99.90;;;;;;4993293;28;20189;-77
2022/06/12 06:50:03;;;;;;;2.47;2.27;;;21.80;99.90;;;;;;4991485;28;20449;-78
2022/06/12 06:52:28;;;;;;;3.00;2.20;;;21.90;99.90;;;;;;4990876;28;20492;-76
2022/06/12 06:54:54;;;;;;;3.13;2.83;;;22.00;99.90;;;;;;4993048;28;20900;-78
2022/06/12 06:57:20;;;;;;;2.60;2.40;;;22.10;99.90;;;;;;5010855;28;20644;-78
2022/06/12 06:59:45;;;;;;;2.90;2.30;;;22.10;99.90;;;;;;4994486;28;20260;-77
2022/06/12 07:02:11;;;;;;;3.50;2.70;;;22.20;99.90;;;;;;4994359;28;20703;-78
2022/06/12 07:04:38;;;;;;;3.73;2.70;;;22.30;99.90;;;;;;4995592;28;20633;-78
2022/06/12 07:07:04;;;;;;;6.10;2.40;;;22.40;99.90;;;;;;4993689;28;20432;-77
2022/06/12 07:09:30;;;;;;;2.10;1.90;;;22.50;99.90;;;;;;4994940;28;20475;-78
2022/06/12 07:11:56;;;;;;;3.53;2.10;;;22.60;99.90;;;;;;4990675;28;20437;-76
2022/06/12 07:14:22;;;;;;;2.50;2.30;;;22.50;99.90;;;;;;4991261;28;20206;-75
2022/06/12 07:16:48;;;;;;;4.03;2.00;;;22.70;99.90;;;;;;4991441;28;20193;-75
2022/06/12 07:19:13;;;;;;;3.00;2.70;;;22.70;99.90;;;;;;4989864;28;20272;-75
2022/06/12 07:21:39;;;;;;;2.83;2.53;;;22.80;99.90;;;;;;4989763;28;20687;-76
2022/06/12 07:24:05;;;;;;;4.97;2.37;;;22.80;99.90;;;;;;4989583;28;20235;-76
2022/06/12 07:26:35;;;;;;;2.30;2.00;;;22.80;99.90;;;;;;4991012;28;20355;-76
2022/06/12 07:29:02;;;;;;;4.70;2.40;;;22.80;99.90;;;;;;4989544;28;20424;-76
2022/06/12 07:31:28;;;;;;;2.70;2.30;;;22.80;99.90;;;;;;4991028;28;20773;-75
2022/06/12 07:33:54;;;;;;;3.23;2.83;;;22.90;99.90;;;;;;4992454;28;20563;-75
2022/06/12 07:36:21;;;;;;;2.87;2.53;;;23.00;99.90;;;;;;4973725;28;20646;-76
2022/06/12 07:38:49;;;;;;;2.40;2.20;;;23.00;99.90;;;;;;4990957;28;20196;-77
2022/06/12 07:41:16;;;;;;;2.90;2.70;;;23.10;99.90;;;;;;4990047;28;20435;-76
2022/06/12 07:43:44;;;;;;;6.20;2.83;;;23.20;99.90;;;;;;4990932;28;20623;-76
2022/06/12 07:46:12;;;;;;;3.10;2.90;;;23.20;99.90;;;;;;4991346;28;20776;-76
2022/06/12 07:48:39;;;;;;;2.50;2.30;;;23.20;99.90;;;;;;4991519;28;20555;-76
2022/06/12 07:51:10;;;;;;;3.03;2.73;;;23.30;99.90;;;;;;4991782;28;20415;-76
2022/06/12 07:53:37;;;;;;;5.60;2.57;;;23.40;99.90;;;;;;4990610;28;20437;-77
2022/06/12 07:56:04;;;;;;;2.80;2.43;;;23.40;99.90;;;;;;4991938;28;20431;-76
2022/06/12 07:58:30;;;;;;;2.03;1.83;;;23.50;99.90;;;;;;4992287;28;20438;-77
2022/06/12 08:00:59;;;;;;;3.03;2.80;;;23.60;99.90;;;;;;4992314;28;20420;-76
2022/06/12 08:03:27;;;;;;;3.33;2.90;;;23.80;99.90;;;;;;4994201;28;20743;-77
2022/06/12 08:05:53;;;;;;;5.30;2.97;;;23.90;99.90;;;;;;4992474;28;20427;-77
2022/06/12 08:08:19;;;;;;;3.70;2.80;;;23.90;99.90;;;;;;4993084;28;20538;-77
2022/06/12 08:10:45;;;;;;;2.90;2.40;;;23.90;99.90;;;;;;5009080;28;20213;-77
2022/06/12 08:13:11;;;;;;;10.10;2.80;;;24.10;99.90;;;;;;4992254;28;20565;-77
2022/06/12 08:15:41;;;;;;;4.67;2.57;;;24.10;99.90;;;;;;4991740;28;20428;-77
2022/06/12 08:18:07;;;;;;;5.57;3.07;;;24.30;99.90;;;;;;4991923;28;20494;-77
2022/06/12 08:20:36;;;;;;;4.60;2.63;;;24.30;99.90;;;;;;4994410;28;20874;-78
2022/06/12 08:23:29;;;;;;;4.67;2.63;;;24.30;99.90;;;;;;4995339;28;20433;-77
2022/06/12 08:26:09;;;;;;;2.83;2.50;;;24.40;99.90;;;;;;4993745;28;20458;-77
2022/06/12 08:28:42;;;;;;;4.47;2.70;;;24.60;99.90;;;;;;5010523;28;20421;-77
2022/06/12 08:31:12;;;;;;;3.53;2.73;;;24.60;99.90;;;;;;4994820;28;20936;-77
2022/06/12 08:33:39;;;;;;;2.97;2.53;;;24.70;99.90;;;;;;4996241;28;20507;-77
2022/06/12 08:36:07;;;;;;;3.10;2.87;;;24.80;99.90;;;;;;5012841;28;20430;-77
2022/06/12 08:38:33;;;;;;;6.23;2.90;;;24.90;99.90;;;;;;5002584;28;20915;-77
2022/06/12 08:41:11;;;;;;;5.87;2.20;;;25.10;99.90;;;;;;5002731;28;20877;-77
2022/06/12 08:44:10;;;;;;;3.40;2.67;;;25.20;99.90;;;;;;5000823;28;21086;-77
2022/06/12 08:46:45;;;;;;;3.50;2.90;;;25.40;99.50;;;;;;5001368;28;20415;-78
2022/06/12 08:49:29;;;;;;;4.33;2.90;;;25.50;99.10;;;;;;5000885;28;20454;-77
2022/06/12 08:52:04;;;;;;;7.13;3.30;;;25.70;98.40;;;;;;4994056;28;20521;-78
2022/06/12 08:54:39;;;;;;;4.20;2.83;;;25.80;97.30;;;;;;4992546;28;20515;-79
2022/06/12 08:57:09;;;;;;;6.80;3.17;;;26.00;97.90;;;;;;4995672;28;20477;-80
2022/06/12 08:59:40;;;;;;;3.63;2.50;;;26.30;97.10;;;;;;5011690;28;20432;-80
2022/06/12 09:02:19;;;;;;;5.20;2.80;;;26.50;96.00;;;;;;4994714;28;20451;-79
2022/06/12 09:04:45;;;;;;;4.00;2.70;;;26.70;95.90;;;;;;4995497;28;20464;-79
2022/06/12 09:07:29;;;;;;;3.77;2.90;;;27.00;95.70;;;;;;4993668;28;21281;-79
2022/06/12 09:10:02;;;;;;;5.27;2.67;;;27.20;94.90;;;;;;4992303;28;20714;-78
2022/06/12 09:12:39;;;;;;;3.00;2.67;;;27.20;94.60;;;;;;5006184;28;20688;-78
2022/06/12 09:15:34;;;;;;;4.40;2.23;;;27.30;94.20;;;;;;4990242;28;20432;-78
2022/06/12 09:18:05;;;;;;;6.80;2.30;;;27.40;94.30;;;;;;5005040;28;21014;-78
2022/06/12 09:20:34;;;;;;;2.57;2.37;;;27.40;93.40;;;;;;4988920;28;20457;-78
2022/06/12 09:23:21;;;;;;;2.90;2.30;;;27.50;93.80;;;;;;4990443;28;21025;-78
2022/06/12 09:26:11;;;;;;;3.40;3.10;;;27.40;93.20;;;;;;4988823;28;20433;-78
2022/06/12 09:28:50;;;;;;;3.27;2.60;;;27.60;92.20;;;;;;4989948;28;20417;-77
2022/06/12 09:31:29;;;;;;;3.43;2.60;;;27.70;92.60;;;;;;4991095;28;20505;-79
2022/06/12 09:34:36;;;;;;;2.90;2.57;;;27.80;92.80;;;;;;4990975;28;20444;-78
2022/06/12 09:40:26;;;;;;;3.07;2.57;;;27.90;92.40;;;;;;4990946;28;20412;-78
2022/06/12 09:43:03;;;;;;;6.00;2.70;;;27.90;92.20;;;;;;4991408;28;20447;-79
2022/06/12 09:45:58;;;;;;;5.93;2.30;;;28.00;91.60;;;;;;4991336;28;21174;-78
2022/06/12 09:48:50;;;;;;;1.90;1.80;;;28.00;91.50;;;;;;4967258;28;20433;-78
2022/06/12 09:51:53;;;;;;;2.50;2.30;;;28.20;92.00;;;;;;4990232;28;20439;-79
2022/06/12 09:54:29;;;;;;;4.10;2.77;;;28.20;90.90;;;;;;4987639;28;20434;-78
2022/06/12 09:57:14;;;;;;;3.27;2.57;;;28.40;91.40;;;;;;4989696;28;20420;-79
2022/06/12 10:00:06;;;;;;;3.80;2.47;;;28.40;90.70;;;;;;4987623;28;20957;-78
2022/06/12 10:02:55;;;;;;;2.20;2.10;;;28.60;91.50;;;;;;4987418;28;20445;-78
2022/06/12 10:05:42;;;;;;;3.63;1.87;;;28.70;90.50;;;;;;4988844;28;20548;-78
2022/06/12 10:08:42;;;;;;;3.00;2.10;;;28.70;88.80;;;;;;4986949;28;20532;-79
2022/06/12 10:11:18;;;;;;;3.17;2.60;;;28.80;85.20;;;;;;4983288;28;20993;-79
2022/06/12 10:13:51;;;;;;;3.03;1.70;;;28.80;83.20;;;;;;4988558;28;20480;-78
2022/06/12 10:16:32;;;;;;;5.73;1.93;;;28.90;84.20;;;;;;4989042;28;20425;-77
2022/06/12 10:19:11;;;;;;;3.63;2.47;;;29.10;84.60;;;;;;4988512;28;20416;-79
2022/06/12 10:21:41;;;;;;;2.60;1.80;;;29.10;83.50;;;;;;5009805;28;20425;-79
2022/06/12 10:24:09;;;;;;;4.43;2.00;;;29.30;84.40;;;;;;5009299;28;20465;-79
2022/06/12 10:26:35;;;;;;;2.00;1.90;;;29.30;83.80;;;;;;5008127;28;20968;-79
2022/06/12 10:29:11;;;;;;;4.50;2.40;;;29.20;79.10;;;;;;5008667;28;20425;-79
2022/06/12 10:32:01;;;;;;;3.00;2.30;;;29.30;81.40;;;;;;4992872;28;20897;-79
2022/06/12 10:34:30;;;;;;;2.30;1.80;;;29.50;80.90;;;;;;5009999;28;20438;-80
2022/06/12 10:37:08;;;;;;;2.60;2.27;;;29.50;79.10;;;;;;4995417;28;20456;-78
2022/06/12 10:39:35;;;;;;;2.70;2.00;;;29.60;78.10;;;;;;4993481;28;20993;-80
2022/06/12 10:42:04;;;;;;;2.20;1.73;;;29.70;77.00;;;;;;4997886;28;20558;-80
2022/06/12 10:44:42;;;;;;;2.63;1.80;;;29.70;78.10;;;;;;4997472;28;20495;-80
2022/06/12 10:47:26;;;;;;;2.90;1.90;;;29.80;77.80;;;;;;4998836;28;20406;-80
2022/06/12 10:50:13;;;;;;;2.20;2.00;;;29.90;75.80;;;;;;4998330;28;20424;-79
2022/06/12 10:52:50;;;;;;;2.23;1.90;;;30.00;74.70;;;;;;4997005;28;20452;-79
2022/06/12 10:55:15;;;;;;;3.90;2.10;;;30.00;76.10;;;;;;4996132;28;20500;-82
2022/06/12 10:57:51;;;;;;;4.80;2.70;;;30.00;74.40;;;;;;5011153;28;20527;-80
2022/06/12 11:00:26;;;;;;;4.43;1.83;;;30.10;74.90;;;;;;4995304;28;20224;-81
2022/06/12 11:03:33;;;;;;;2.17;1.97;;;30.20;74.50;;;;;;4995515;28;21278;-81
2022/06/12 11:06:20;;;;;;;2.57;1.77;;;30.40;74.20;;;;;;4993585;28;20510;-81
2022/06/12 11:09:19;;;;;;;3.53;2.23;;;30.30;72.60;;;;;;4996411;28;21065;-81
2022/06/12 11:11:54;;;;;;;3.67;1.70;;;30.30;73.10;;;;;;5011449;28;20417;-81
2022/06/12 11:14:26;;;;;;;4.50;1.93;;;30.40;71.40;;;;;;4995684;28;20456;-80
2022/06/12 11:17:11;;;;;;;5.00;1.93;;;30.40;70.00;;;;;;4997126;28;20421;-80
2022/06/12 11:20:21;;;;;;;2.50;2.30;;;30.50;70.90;;;;;;4995042;28;20444;-80
2022/06/12 11:22:58;;;;;;;2.03;1.50;;;30.50;69.00;;;;;;4994133;28;20471;-78
2022/06/12 11:25:47;;;;;;;3.33;1.60;;;30.60;68.90;;;;;;4997058;28;20468;-79
2022/06/12 11:28:28;;;;;;;2.27;1.50;;;30.70;66.30;;;;;;4997334;28;20416;-80
2022/06/12 11:31:31;;;;;;;1.73;1.53;;;30.60;65.10;;;;;;4996851;28;20417;-79
2022/06/12 11:34:11;;;;;;;3.40;1.83;;;30.70;64.60;;;;;;4997146;28;20441;-79
2022/06/12 11:36:46;;;;;;;4.13;1.70;;;30.70;59.30;;;;;;4997509;28;20445;-81
2022/06/12 11:39:21;;;;;;;2.90;1.80;;;30.60;60.00;;;;;;4992925;28;20416;-80
2022/06/12 11:42:07;;;;;;;1.50;1.40;;;30.60;59.90;;;;;;4992327;28;20432;-79
2022/06/12 11:44:49;;;;;;;1.50;1.40;;;30.70;63.30;;;;;;4990545;28;20461;-79
2022/06/12 11:47:44;;;;;;;1.83;1.27;;;30.80;63.30;;;;;;4992231;28;20547;-78
2022/06/12 11:50:39;;;;;;;2.33;1.70;;;30.70;59.40;;;;;;4991827;28;20420;-78
2022/06/12 11:53:41;;;;;;;2.00;1.70;;;30.80;62.90;;;;;;4977778;28;20468;-78
2022/06/12 11:56:48;;;;;;;2.03;1.83;;;30.90;61.80;;;;;;4991447;28;20455;-78
2022/06/12 11:59:29;;;;;;;3.13;1.40;;;31.00;63.80;;;;;;4989692;28;20452;-79
2022/06/12 12:02:13;;;;;;;3.53;1.70;;;31.10;59.90;;;;;;4990877;28;20412;-78
2022/06/12 12:05:19;;;;;;;3.47;1.70;;;31.00;59.20;;;;;;4990813;28;20471;-78
2022/06/12 12:08:06;;;;;;;4.33;1.77;;;31.00;60.00;;;;;;4990868;28;21249;-79
2022/06/12 12:11:00;;;;;;;2.17;1.40;;;31.00;59.70;;;;;;4990670;28;20544;-79
2022/06/12 12:13:31;;;;;;;4.57;1.40;;;30.90;58.20;;;;;;4990229;28;20479;-79
2022/06/12 12:16:03;;;;;;;2.30;1.30;;;30.90;60.50;;;;;;4988942;28;20455;-79
2022/06/12 12:18:50;;;;;;;3.33;1.47;;;31.00;60.30;;;;;;4990300;28;20449;-79
2022/06/12 12:21:30;;;;;;;1.70;1.50;;;30.70;60.70;;;;;;4988518;28;20436;-79
2022/06/12 12:23:57;;;;;;;1.60;1.50;;;30.70;60.20;;;;;;4989971;28;20551;-78
2022/06/12 12:26:33;;;;;;;3.10;1.60;;;30.80;60.60;;;;;;4988868;28;20417;-78
2022/06/12 12:29:27;;;;;;;2.20;1.70;;;30.80;60.60;;;;;;4990983;28;20924;-79
2022/06/12 12:31:54;;;;;;;1.63;1.07;;;30.90;59.20;;;;;;4993315;28;20933;-80
2022/06/12 12:34:23;;;;;;;3.10;1.70;;;30.90;58.40;;;;;;4991624;28;20432;-79
2022/06/12 12:42:27;;;;;;;2.40;1.30;;;31.00;58.60;;;;;;4992591;28;20527;-78
2022/06/12 12:44:53;;;;;;;2.37;1.80;;;30.80;56.70;;;;;;4992484;28;20497;-80
2022/06/12 12:47:28;;;;;;;1.83;1.67;;;30.70;59.50;;;;;;5008397;28;20425;-80
2022/06/12 12:50:17;;;;;;;2.17;1.70;;;30.40;60.50;;;;;;4991366;28;20530;-79
2022/06/12 12:52:53;;;;;;;3.93;2.23;;;30.40;61.60;;;;;;4992206;28;20449;-80
2022/06/12 12:55:30;;;;;;;1.93;1.77;;;30.40;63.90;;;;;;4992600;28;20789;-79
2022/06/12 12:57:59;;;;;;;2.10;1.63;;;30.40;62.50;;;;;;4992494;28;20433;-79
2022/06/12 13:00:34;;;;;;;3.47;1.60;;;30.50;61.10;;;;;;4990868;28;20437;-78
2022/06/12 13:03:25;;;;;;;2.47;1.70;;;30.60;62.40;;;;;;4991886;28;20557;-79
2022/06/12 13:06:23;;;;;;;2.70;1.60;;;30.80;60.20;;;;;;4990510;28;20566;-80
2022/06/12 13:08:58;;;;;;;3.60;1.90;;;30.80;56.90;;;;;;4991025;28;20505;-79
2022/06/12 13:11:50;;;;;;;3.83;1.70;;;30.90;61.10;;;;;;5007253;28;20789;-80
2022/06/12 13:14:22;;;;;;;4.30;1.70;;;31.10;58.80;;;;;;4990860;28;20536;-80
2022/06/12 13:17:03;;;;;;;3.97;1.40;;;31.00;58.30;;;;;;4990699;28;20895;-82
2022/06/12 13:20:00;;;;;;;1.70;1.60;;;31.10;58.90;;;;;;4990134;28;20424;-81
2022/06/12 13:22:53;;;;;;;1.93;1.50;;;31.00;59.10;;;;;;4938018;28;20503;-82
2022/06/12 13:25:40;;;;;;;3.30;1.63;;;31.10;59.30;;;;;;4991191;28;20464;-82
2022/06/12 13:28:16;;;;;;;1.97;1.60;;;31.10;60.20;;;;;;4972175;28;20419;-82
2022/06/12 13:30:42;;;;;;;3.90;1.87;;;31.20;59.60;;;;;;4973836;28;20518;-82
2022/06/12 13:33:20;;;;;;;1.40;1.30;;;30.90;58.70;;;;;;4972202;28;21278;-82
2022/06/12 13:36:00;;;;;;;5.90;1.60;;;30.50;58.80;;;;;;4988157;28;20182;-84
2022/06/12 13:38:26;;;;;;;3.80;1.67;;;30.10;60.30;;;;;;5004707;28;20492;-82
2022/06/12 13:41:05;;;;;;;2.10;1.50;;;29.80;59.60;;;;;;4990927;28;20420;-79
2022/06/12 13:43:41;;;;;;;3.23;2.10;;;29.70;61.80;;;;;;5008737;28;20448;-79
2022/06/12 13:46:32;;;;;;;3.80;2.23;;;30.00;62.90;;;;;;4994595;28;20428;-79
2022/06/12 13:49:00;;;;;;;2.50;1.70;;;30.10;64.80;;;;;;4994448;28;20479;-80